sensor_id;sensor_type;location;lat;lon;timestamp;P1;durP1;ratioP1;P2;durP2;ratioP2
12556;SDS011;6344;49.932;8.308;2022-10-23T00:00:07;17.23;;;14.67;;
12556;SDS011;6344;49.932;8.308;2022-10-23T00:02:36;15.23;;;13.00;;
12556;SDS011;6344;49.932;8.308;2022-10-23T00:05:03;17.50;;;15.23;;
12556;SDS011;6344;49.932;8.308;2022-10-23T00:07:30;16.87;;;15.10;;
12556;SDS011;6344;49.932;8.308;2022-10-23T00:09:56;14.60;;;11.77;;
12556;SDS011;6344;49.932;8.308;2022-10-23T00:12:23;14.57;;;13.07;;
12556;SDS011;6344;49.932;8.308;2022-10-23T00:14:52;68.77;;;47.83;;
12556;SDS011;6344;49.932;8.308;2022-10-23T00:17:18;57.70;;;44.00;;
12556;SDS011;6344;49.932;8.308;2022-10-23T00:19:46;76.20;;;56.60;;
12556;SDS011;6344;49.932;8.308;2022-10-23T00:22:13;76.77;;;53.50;;
12556;SDS011;6344;49.932;8.308;2022-10-23T00:24:40;64.73;;;44.30;;
12556;SDS011;6344;49.932;8.308;2022-10-23T00:27:06;75.43;;;48.93;;
12556;SDS011;6344;49.932;8.308;2022-10-23T00:29:33;76.47;;;50.90;;
12556;SDS011;6344;49.932;8.308;2022-10-23T00:32:00;49.63;;;35.73;;
12556;SDS011;6344;49.932;8.308;2022-10-23T00:34:27;100.83;;;66.60;;
12556;SDS011;6344;49.932;8.308;2022-10-23T00:36:55;100.90;;;72.30;;
12556;SDS011;6344;49.932;8.308;2022-10-23T00:39:21;117.40;;;76.57;;
12556;SDS011;6344;49.932;8.308;2022-10-23T00:41:48;102.37;;;67.57;;
12556;SDS011;6344;49.932;8.308;2022-10-23T00:47:19;117.30;;;77.60;;
12556;SDS011;6344;49.932;8.308;2022-10-23T00:49:46;105.87;;;73.97;;
12556;SDS011;6344;49.932;8.308;2022-10-23T00:52:14;82.37;;;55.70;;
12556;SDS011;6344;49.932;8.308;2022-10-23T00:54:41;96.77;;;66.70;;
12556;SDS011;6344;49.932;8.308;2022-10-23T00:57:10;98.80;;;68.50;;
12556;SDS011;6344;49.932;8.308;2022-10-23T00:59:38;143.57;;;85.07;;
12556;SDS011;6344;49.932;8.308;2022-10-23T01:02:05;126.10;;;71.80;;
12556;SDS011;6344;49.932;8.308;2022-10-23T01:04:32;120.67;;;71.80;;
12556;SDS011;6344;49.932;8.308;2022-10-23T01:07:01;125.07;;;77.80;;
12556;SDS011;6344;49.932;8.308;2022-10-23T01:09:36;121.57;;;72.13;;
12556;SDS011;6344;49.932;8.308;2022-10-23T01:12:09;120.87;;;73.50;;
12556;SDS011;6344;49.932;8.308;2022-10-23T01:14:42;117.57;;;71.77;;
12556;SDS011;6344;49.932;8.308;2022-10-23T01:17:15;111.57;;;67.10;;
12556;SDS011;6344;49.932;8.308;2022-10-23T01:19:50;123.73;;;74.77;;
12556;SDS011;6344;49.932;8.308;2022-10-23T01:22:37;118.97;;;71.10;;
12556;SDS011;6344;49.932;8.308;2022-10-23T01:25:26;125.03;;;72.53;;
12556;SDS011;6344;49.932;8.308;2022-10-23T01:28:05;135.10;;;76.87;;
12556;SDS011;6344;49.932;8.308;2022-10-23T01:30:35;111.73;;;70.43;;
12556;SDS011;6344;49.932;8.308;2022-10-23T01:33:08;117.70;;;67.77;;
12556;SDS011;6344;49.932;8.308;2022-10-23T01:35:39;101.93;;;59.07;;
12556;SDS011;6344;49.932;8.308;2022-10-23T01:38:13;77.10;;;48.27;;
12556;SDS011;6344;49.932;8.308;2022-10-23T01:40:43;100.63;;;59.00;;
12556;SDS011;6344;49.932;8.308;2022-10-23T01:43:16;91.57;;;50.13;;
12556;SDS011;6344;49.932;8.308;2022-10-23T01:45:46;87.93;;;52.70;;
12556;SDS011;6344;49.932;8.308;2022-10-23T01:48:17;79.93;;;47.70;;
12556;SDS011;6344;49.932;8.308;2022-10-23T01:50:47;66.70;;;40.33;;
12556;SDS011;6344;49.932;8.308;2022-10-23T01:53:16;88.00;;;51.90;;
12556;SDS011;6344;49.932;8.308;2022-10-23T01:55:43;96.63;;;52.97;;
12556;SDS011;6344;49.932;8.308;2022-10-23T01:58:12;61.37;;;37.33;;
12556;SDS011;6344;49.932;8.308;2022-10-23T02:00:45;85.77;;;48.90;;
12556;SDS011;6344;49.932;8.308;2022-10-23T02:03:13;94.60;;;50.00;;
12556;SDS011;6344;49.932;8.308;2022-10-23T02:05:42;94.87;;;51.17;;
12556;SDS011;6344;49.932;8.308;2022-10-23T02:08:10;65.30;;;41.70;;
12556;SDS011;6344;49.932;8.308;2022-10-23T02:10:38;81.40;;;47.87;;
12556;SDS011;6344;49.932;8.308;2022-10-23T02:13:10;50.87;;;35.17;;
12556;SDS011;6344;49.932;8.308;2022-10-23T02:15:44;52.70;;;34.90;;
12556;SDS011;6344;49.932;8.308;2022-10-23T02:18:14;58.33;;;37.33;;
12556;SDS011;6344;49.932;8.308;2022-10-23T02:20:54;45.07;;;30.30;;
12556;SDS011;6344;49.932;8.308;2022-10-23T02:23:24;55.43;;;37.40;;
12556;SDS011;6344;49.932;8.308;2022-10-23T02:25:56;40.53;;;27.83;;
12556;SDS011;6344;49.932;8.308;2022-10-23T02:28:27;54.87;;;35.20;;
12556;SDS011;6344;49.932;8.308;2022-10-23T02:31:00;59.60;;;34.77;;
12556;SDS011;6344;49.932;8.308;2022-10-23T02:33:29;43.57;;;29.57;;
12556;SDS011;6344;49.932;8.308;2022-10-23T02:35:56;46.73;;;28.27;;
12556;SDS011;6344;49.932;8.308;2022-10-23T02:38:27;45.23;;;31.17;;
12556;SDS011;6344;49.932;8.308;2022-10-23T02:40:57;34.00;;;21.40;;
12556;SDS011;6344;49.932;8.308;2022-10-23T02:43:36;27.80;;;20.47;;
12556;SDS011;6344;49.932;8.308;2022-10-23T02:46:11;36.10;;;25.10;;
12556;SDS011;6344;49.932;8.308;2022-10-23T02:48:46;25.40;;;18.90;;
12556;SDS011;6344;49.932;8.308;2022-10-23T02:51:20;29.13;;;19.40;;
12556;SDS011;6344;49.932;8.308;2022-10-23T02:53:52;34.27;;;22.00;;
12556;SDS011;6344;49.932;8.308;2022-10-23T02:56:29;25.90;;;17.50;;
12556;SDS011;6344;49.932;8.308;2022-10-23T02:59:05;28.47;;;19.43;;
12556;SDS011;6344;49.932;8.308;2022-10-23T03:01:39;38.00;;;24.73;;
12556;SDS011;6344;49.932;8.308;2022-10-23T03:04:13;28.87;;;22.40;;
12556;SDS011;6344;49.932;8.308;2022-10-23T03:06:42;26.83;;;21.10;;
12556;SDS011;6344;49.932;8.308;2022-10-23T03:09:09;29.10;;;19.80;;
12556;SDS011;6344;49.932;8.308;2022-10-23T03:11:36;19.57;;;17.20;;
12556;SDS011;6344;49.932;8.308;2022-10-23T03:14:02;25.20;;;17.70;;
12556;SDS011;6344;49.932;8.308;2022-10-23T03:16:29;30.07;;;23.57;;
12556;SDS011;6344;49.932;8.308;2022-10-23T03:18:57;20.20;;;16.17;;
12556;SDS011;6344;49.932;8.308;2022-10-23T03:21:24;25.50;;;18.10;;
12556;SDS011;6344;49.932;8.308;2022-10-23T03:23:50;26.90;;;17.50;;
12556;SDS011;6344;49.932;8.308;2022-10-23T03:26:17;21.87;;;17.67;;
12556;SDS011;6344;49.932;8.308;2022-10-23T03:28:44;33.50;;;21.43;;
12556;SDS011;6344;49.932;8.308;2022-10-23T03:31:10;24.33;;;17.93;;
12556;SDS011;6344;49.932;8.308;2022-10-23T03:33:37;18.10;;;16.27;;
12556;SDS011;6344;49.932;8.308;2022-10-23T03:36:05;26.40;;;18.60;;
12556;SDS011;6344;49.932;8.308;2022-10-23T03:38:33;27.23;;;18.97;;
12556;SDS011;6344;49.932;8.308;2022-10-23T03:40:59;28.07;;;19.30;;
12556;SDS011;6344;49.932;8.308;2022-10-23T03:43:26;21.90;;;17.50;;
12556;SDS011;6344;49.932;8.308;2022-10-23T03:45:54;21.40;;;16.57;;
12556;SDS011;6344;49.932;8.308;2022-10-23T03:48:21;27.70;;;16.00;;
12556;SDS011;6344;49.932;8.308;2022-10-23T03:50:48;20.13;;;16.67;;
12556;SDS011;6344;49.932;8.308;2022-10-23T03:53:17;16.40;;;14.40;;
12556;SDS011;6344;49.932;8.308;2022-10-23T03:55:44;18.70;;;16.37;;
12556;SDS011;6344;49.932;8.308;2022-10-23T03:58:11;22.03;;;17.10;;
12556;SDS011;6344;49.932;8.308;2022-10-23T04:00:37;27.67;;;18.00;;
12556;SDS011;6344;49.932;8.308;2022-10-23T04:03:04;20.50;;;15.27;;
12556;SDS011;6344;49.932;8.308;2022-10-23T04:05:31;34.13;;;16.53;;
12556;SDS011;6344;49.932;8.308;2022-10-23T04:07:57;23.30;;;16.23;;
12556;SDS011;6344;49.932;8.308;2022-10-23T04:10:25;20.73;;;15.90;;
12556;SDS011;6344;49.932;8.308;2022-10-23T04:12:52;17.70;;;15.80;;
12556;SDS011;6344;49.932;8.308;2022-10-23T04:15:19;20.53;;;15.77;;
12556;SDS011;6344;49.932;8.308;2022-10-23T04:17:45;20.97;;;15.27;;
12556;SDS011;6344;49.932;8.308;2022-10-23T04:20:12;19.70;;;17.10;;
12556;SDS011;6344;49.932;8.308;2022-10-23T04:22:39;18.60;;;15.13;;
12556;SDS011;6344;49.932;8.308;2022-10-23T04:25:06;16.87;;;15.03;;
12556;SDS011;6344;49.932;8.308;2022-10-23T04:27:34;27.17;;;16.17;;
12556;SDS011;6344;49.932;8.308;2022-10-23T04:30:01;21.43;;;16.00;;
12556;SDS011;6344;49.932;8.308;2022-10-23T04:32:29;30.20;;;17.60;;
12556;SDS011;6344;49.932;8.308;2022-10-23T04:34:56;24.17;;;18.30;;
12556;SDS011;6344;49.932;8.308;2022-10-23T04:37:22;23.60;;;16.37;;
12556;SDS011;6344;49.932;8.308;2022-10-23T04:39:49;31.57;;;17.70;;
12556;SDS011;6344;49.932;8.308;2022-10-23T04:42:16;18.03;;;15.50;;
12556;SDS011;6344;49.932;8.308;2022-10-23T04:44:44;20.60;;;14.77;;
12556;SDS011;6344;49.932;8.308;2022-10-23T04:47:11;19.67;;;14.40;;
12556;SDS011;6344;49.932;8.308;2022-10-23T04:49:37;17.40;;;14.67;;
12556;SDS011;6344;49.932;8.308;2022-10-23T04:52:04;21.17;;;13.90;;
12556;SDS011;6344;49.932;8.308;2022-10-23T04:54:34;21.67;;;16.40;;
12556;SDS011;6344;49.932;8.308;2022-10-23T04:57:02;18.13;;;15.00;;
12556;SDS011;6344;49.932;8.308;2022-10-23T04:59:28;28.97;;;16.87;;
12556;SDS011;6344;49.932;8.308;2022-10-23T05:01:56;19.80;;;15.67;;
12556;SDS011;6344;49.932;8.308;2022-10-23T05:04:23;20.50;;;15.30;;
12556;SDS011;6344;49.932;8.308;2022-10-23T05:06:50;17.83;;;13.93;;
12556;SDS011;6344;49.932;8.308;2022-10-23T05:09:17;20.57;;;16.00;;
12556;SDS011;6344;49.932;8.308;2022-10-23T05:11:43;15.10;;;12.80;;
12556;SDS011;6344;49.932;8.308;2022-10-23T05:14:10;20.20;;;14.60;;
12556;SDS011;6344;49.932;8.308;2022-10-23T05:16:38;19.80;;;14.30;;
12556;SDS011;6344;49.932;8.308;2022-10-23T05:19:09;16.07;;;13.70;;
12556;SDS011;6344;49.932;8.308;2022-10-23T05:21:40;16.63;;;13.97;;
12556;SDS011;6344;49.932;8.308;2022-10-23T05:24:07;19.50;;;13.90;;
12556;SDS011;6344;49.932;8.308;2022-10-23T05:26:36;17.53;;;13.53;;
12556;SDS011;6344;49.932;8.308;2022-10-23T05:29:03;16.63;;;14.13;;
12556;SDS011;6344;49.932;8.308;2022-10-23T05:31:29;17.70;;;15.80;;
12556;SDS011;6344;49.932;8.308;2022-10-23T05:33:58;20.70;;;15.47;;
12556;SDS011;6344;49.932;8.308;2022-10-23T05:36:27;15.90;;;13.93;;
12556;SDS011;6344;49.932;8.308;2022-10-23T05:38:53;20.00;;;15.70;;
12556;SDS011;6344;49.932;8.308;2022-10-23T05:41:20;15.87;;;13.80;;
12556;SDS011;6344;49.932;8.308;2022-10-23T05:43:47;17.10;;;15.37;;
12556;SDS011;6344;49.932;8.308;2022-10-23T05:46:14;18.63;;;14.83;;
12556;SDS011;6344;49.932;8.308;2022-10-23T05:48:40;16.60;;;14.20;;
12556;SDS011;6344;49.932;8.308;2022-10-23T05:51:08;17.10;;;14.13;;
12556;SDS011;6344;49.932;8.308;2022-10-23T05:53:37;17.30;;;13.70;;
12556;SDS011;6344;49.932;8.308;2022-10-23T05:56:04;22.43;;;13.47;;
12556;SDS011;6344;49.932;8.308;2022-10-23T05:58:32;15.90;;;14.10;;
12556;SDS011;6344;49.932;8.308;2022-10-23T06:01:02;17.77;;;13.73;;
12556;SDS011;6344;49.932;8.308;2022-10-23T06:03:30;18.30;;;14.00;;
12556;SDS011;6344;49.932;8.308;2022-10-23T06:05:57;19.23;;;14.77;;
12556;SDS011;6344;49.932;8.308;2022-10-23T06:08:23;18.80;;;14.93;;
12556;SDS011;6344;49.932;8.308;2022-10-23T06:10:51;21.73;;;14.60;;
12556;SDS011;6344;49.932;8.308;2022-10-23T06:13:18;17.97;;;14.00;;
12556;SDS011;6344;49.932;8.308;2022-10-23T06:15:45;16.70;;;13.00;;
12556;SDS011;6344;49.932;8.308;2022-10-23T06:18:12;17.60;;;12.80;;
12556;SDS011;6344;49.932;8.308;2022-10-23T06:20:39;21.53;;;14.37;;
12556;SDS011;6344;49.932;8.308;2022-10-23T06:23:06;17.23;;;14.00;;
12556;SDS011;6344;49.932;8.308;2022-10-23T06:25:33;23.27;;;14.90;;
12556;SDS011;6344;49.932;8.308;2022-10-23T06:28:01;13.50;;;12.17;;
12556;SDS011;6344;49.932;8.308;2022-10-23T06:30:28;20.97;;;15.17;;
12556;SDS011;6344;49.932;8.308;2022-10-23T06:32:54;20.30;;;15.13;;
12556;SDS011;6344;49.932;8.308;2022-10-23T06:35:21;13.87;;;12.50;;
12556;SDS011;6344;49.932;8.308;2022-10-23T06:37:48;18.43;;;13.33;;
12556;SDS011;6344;49.932;8.308;2022-10-23T06:40:14;18.90;;;15.40;;
12556;SDS011;6344;49.932;8.308;2022-10-23T06:42:41;19.00;;;15.50;;
12556;SDS011;6344;49.932;8.308;2022-10-23T06:45:09;17.97;;;14.47;;
12556;SDS011;6344;49.932;8.308;2022-10-23T06:47:36;16.20;;;14.50;;
12556;SDS011;6344;49.932;8.308;2022-10-23T06:50:03;19.77;;;14.20;;
12556;SDS011;6344;49.932;8.308;2022-10-23T06:52:30;17.00;;;13.60;;
12556;SDS011;6344;49.932;8.308;2022-10-23T06:54:56;23.37;;;15.80;;
12556;SDS011;6344;49.932;8.308;2022-10-23T06:57:23;17.03;;;13.77;;
12556;SDS011;6344;49.932;8.308;2022-10-23T06:59:50;18.10;;;14.07;;
12556;SDS011;6344;49.932;8.308;2022-10-23T07:02:18;21.27;;;14.90;;
12556;SDS011;6344;49.932;8.308;2022-10-23T07:04:44;22.37;;;15.80;;
12556;SDS011;6344;49.932;8.308;2022-10-23T07:07:11;19.70;;;15.70;;
12556;SDS011;6344;49.932;8.308;2022-10-23T07:09:38;18.90;;;15.20;;
12556;SDS011;6344;49.932;8.308;2022-10-23T07:12:05;18.50;;;15.30;;
12556;SDS011;6344;49.932;8.308;2022-10-23T07:14:31;16.20;;;12.83;;
12556;SDS011;6344;49.932;8.308;2022-10-23T07:16:58;15.93;;;13.77;;
12556;SDS011;6344;49.932;8.308;2022-10-23T07:19:26;16.70;;;14.23;;
12556;SDS011;6344;49.932;8.308;2022-10-23T07:21:53;15.93;;;14.23;;
12556;SDS011;6344;49.932;8.308;2022-10-23T07:24:20;22.03;;;13.20;;
12556;SDS011;6344;49.932;8.308;2022-10-23T07:26:47;20.40;;;14.67;;
12556;SDS011;6344;49.932;8.308;2022-10-23T07:29:13;15.50;;;13.80;;
12556;SDS011;6344;49.932;8.308;2022-10-23T07:31:40;18.07;;;14.67;;
12556;SDS011;6344;49.932;8.308;2022-10-23T07:34:07;15.60;;;13.70;;
12556;SDS011;6344;49.932;8.308;2022-10-23T07:36:36;18.60;;;13.53;;
12556;SDS011;6344;49.932;8.308;2022-10-23T07:39:02;18.80;;;12.83;;
12556;SDS011;6344;49.932;8.308;2022-10-23T07:41:29;16.03;;;12.93;;
12556;SDS011;6344;49.932;8.308;2022-10-23T07:43:56;17.47;;;12.93;;
12556;SDS011;6344;49.932;8.308;2022-10-23T07:46:22;20.13;;;12.80;;
12556;SDS011;6344;49.932;8.308;2022-10-23T07:48:49;15.97;;;11.60;;
12556;SDS011;6344;49.932;8.308;2022-10-23T07:51:16;13.53;;;10.87;;
12556;SDS011;6344;49.932;8.308;2022-10-23T07:53:44;13.87;;;10.43;;
12556;SDS011;6344;49.932;8.308;2022-10-23T07:56:12;10.77;;;9.77;;
12556;SDS011;6344;49.932;8.308;2022-10-23T07:58:40;10.80;;;9.73;;
12556;SDS011;6344;49.932;8.308;2022-10-23T08:01:11;13.40;;;10.00;;
12556;SDS011;6344;49.932;8.308;2022-10-23T08:03:41;11.67;;;10.57;;
12556;SDS011;6344;49.932;8.308;2022-10-23T08:06:08;13.57;;;10.77;;
12556;SDS011;6344;49.932;8.308;2022-10-23T08:08:35;16.60;;;9.77;;
12556;SDS011;6344;49.932;8.308;2022-10-23T08:11:03;13.00;;;10.90;;
12556;SDS011;6344;49.932;8.308;2022-10-23T08:13:30;12.00;;;10.97;;
12556;SDS011;6344;49.932;8.308;2022-10-23T08:15:57;11.73;;;9.97;;
12556;SDS011;6344;49.932;8.308;2022-10-23T08:18:24;10.43;;;9.63;;
12556;SDS011;6344;49.932;8.308;2022-10-23T08:20:50;10.93;;;10.00;;
12556;SDS011;6344;49.932;8.308;2022-10-23T08:23:18;10.03;;;9.20;;
12556;SDS011;6344;49.932;8.308;2022-10-23T08:25:45;16.20;;;9.00;;
12556;SDS011;6344;49.932;8.308;2022-10-23T08:28:13;12.07;;;8.60;;
12556;SDS011;6344;49.932;8.308;2022-10-23T08:30:40;11.87;;;8.00;;
12556;SDS011;6344;49.932;8.308;2022-10-23T08:33:08;9.97;;;7.93;;
12556;SDS011;6344;49.932;8.308;2022-10-23T08:35:35;11.80;;;9.57;;
12556;SDS011;6344;49.932;8.308;2022-10-23T08:38:02;10.97;;;9.80;;
12556;SDS011;6344;49.932;8.308;2022-10-23T08:40:29;9.97;;;9.17;;
12556;SDS011;6344;49.932;8.308;2022-10-23T08:42:57;12.33;;;10.30;;
12556;SDS011;6344;49.932;8.308;2022-10-23T08:45:29;11.33;;;10.20;;
12556;SDS011;6344;49.932;8.308;2022-10-23T08:47:58;10.97;;;9.90;;
12556;SDS011;6344;49.932;8.308;2022-10-23T08:50:33;11.07;;;9.97;;
12556;SDS011;6344;49.932;8.308;2022-10-23T08:53:04;9.77;;;9.03;;
12556;SDS011;6344;49.932;8.308;2022-10-23T08:55:39;11.23;;;10.13;;
12556;SDS011;6344;49.932;8.308;2022-10-23T08:58:11;10.37;;;9.33;;
12556;SDS011;6344;49.932;8.308;2022-10-23T09:00:43;12.17;;;10.17;;
12556;SDS011;6344;49.932;8.308;2022-10-23T09:03:11;10.20;;;9.40;;
12556;SDS011;6344;49.932;8.308;2022-10-23T09:05:41;10.77;;;9.23;;
12556;SDS011;6344;49.932;8.308;2022-10-23T09:08:20;10.50;;;9.60;;
12556;SDS011;6344;49.932;8.308;2022-10-23T09:11:01;10.20;;;9.40;;
12556;SDS011;6344;49.932;8.308;2022-10-23T09:13:46;9.90;;;9.20;;
12556;SDS011;6344;49.932;8.308;2022-10-23T09:16:27;9.20;;;8.43;;
12556;SDS011;6344;49.932;8.308;2022-10-23T09:19:15;8.30;;;7.60;;
12556;SDS011;6344;49.932;8.308;2022-10-23T09:21:43;7.93;;;7.33;;
12556;SDS011;6344;49.932;8.308;2022-10-23T09:24:12;7.93;;;7.33;;
12556;SDS011;6344;49.932;8.308;2022-10-23T09:26:41;7.93;;;7.30;;
12556;SDS011;6344;49.932;8.308;2022-10-23T09:29:13;7.07;;;6.40;;
12556;SDS011;6344;49.932;8.308;2022-10-23T09:31:49;7.93;;;7.17;;
12556;SDS011;6344;49.932;8.308;2022-10-23T09:34:17;9.27;;;8.37;;
12556;SDS011;6344;49.932;8.308;2022-10-23T09:36:49;10.40;;;7.20;;
12556;SDS011;6344;49.932;8.308;2022-10-23T09:39:22;8.40;;;7.60;;
12556;SDS011;6344;49.932;8.308;2022-10-23T09:41:51;7.90;;;7.20;;
12556;SDS011;6344;49.932;8.308;2022-10-23T09:44:18;14.33;;;8.27;;
12556;SDS011;6344;49.932;8.308;2022-10-23T09:46:46;9.23;;;6.73;;
12556;SDS011;6344;49.932;8.308;2022-10-23T09:49:18;7.80;;;7.00;;
12556;SDS011;6344;49.932;8.308;2022-10-23T09:51:50;7.67;;;6.93;;
12556;SDS011;6344;49.932;8.308;2022-10-23T09:54:21;8.10;;;6.47;;
12556;SDS011;6344;49.932;8.308;2022-10-23T09:56:49;7.47;;;6.70;;
12556;SDS011;6344;49.932;8.308;2022-10-23T09:59:20;6.90;;;6.33;;
12556;SDS011;6344;49.932;8.308;2022-10-23T10:01:53;6.40;;;5.90;;
12556;SDS011;6344;49.932;8.308;2022-10-23T10:04:30;6.90;;;6.40;;
12556;SDS011;6344;49.932;8.308;2022-10-23T10:06:58;6.60;;;6.03;;
12556;SDS011;6344;49.932;8.308;2022-10-23T10:09:26;7.10;;;6.50;;
12556;SDS011;6344;49.932;8.308;2022-10-23T10:11:53;6.60;;;6.00;;
12556;SDS011;6344;49.932;8.308;2022-10-23T10:14:41;6.50;;;6.00;;
12556;SDS011;6344;49.932;8.308;2022-10-23T10:17:26;7.20;;;6.10;;
12556;SDS011;6344;49.932;8.308;2022-10-23T10:20:09;9.50;;;6.30;;
12556;SDS011;6344;49.932;8.308;2022-10-23T10:22:52;9.00;;;6.30;;
12556;SDS011;6344;49.932;8.308;2022-10-23T10:25:26;6.80;;;6.20;;
12556;SDS011;6344;49.932;8.308;2022-10-23T10:28:03;5.83;;;5.40;;
12556;SDS011;6344;49.932;8.308;2022-10-23T10:30:46;6.40;;;5.77;;
12556;SDS011;6344;49.932;8.308;2022-10-23T10:33:23;6.63;;;6.07;;
12556;SDS011;6344;49.932;8.308;2022-10-23T10:35:58;6.93;;;6.03;;
12556;SDS011;6344;49.932;8.308;2022-10-23T10:38:40;6.90;;;6.40;;
12556;SDS011;6344;49.932;8.308;2022-10-23T10:41:21;10.17;;;6.40;;
12556;SDS011;6344;49.932;8.308;2022-10-23T10:43:59;5.77;;;5.27;;
12556;SDS011;6344;49.932;8.308;2022-10-23T10:46:35;6.33;;;5.70;;
12556;SDS011;6344;49.932;8.308;2022-10-23T10:49:11;5.97;;;4.87;;
12556;SDS011;6344;49.932;8.308;2022-10-23T10:51:45;7.60;;;5.60;;
12556;SDS011;6344;49.932;8.308;2022-10-23T10:54:25;8.20;;;7.33;;
12556;SDS011;6344;49.932;8.308;2022-10-23T10:57:03;7.80;;;5.53;;
12556;SDS011;6344;49.932;8.308;2022-10-23T10:59:37;8.43;;;7.67;;
12556;SDS011;6344;49.932;8.308;2022-10-23T11:02:12;5.87;;;5.27;;
12556;SDS011;6344;49.932;8.308;2022-10-23T11:04:53;5.70;;;5.20;;
12556;SDS011;6344;49.932;8.308;2022-10-23T11:07:26;5.90;;;5.00;;
12556;SDS011;6344;49.932;8.308;2022-10-23T11:09:58;6.07;;;5.53;;
12556;SDS011;6344;49.932;8.308;2022-10-23T11:12:29;5.83;;;5.10;;
12556;SDS011;6344;49.932;8.308;2022-10-23T11:14:56;5.73;;;5.27;;
12556;SDS011;6344;49.932;8.308;2022-10-23T11:17:23;6.70;;;5.40;;
12556;SDS011;6344;49.932;8.308;2022-10-23T11:19:56;6.73;;;6.13;;
12556;SDS011;6344;49.932;8.308;2022-10-23T11:22:29;6.87;;;6.37;;
12556;SDS011;6344;49.932;8.308;2022-10-23T11:25:04;8.63;;;5.90;;
12556;SDS011;6344;49.932;8.308;2022-10-23T11:27:48;6.30;;;5.90;;
12556;SDS011;6344;49.932;8.308;2022-10-23T11:30:39;16.53;;;15.17;;
12556;SDS011;6344;49.932;8.308;2022-10-23T11:33:33;5.93;;;5.43;;
12556;SDS011;6344;49.932;8.308;2022-10-23T11:36:37;6.73;;;6.10;;
12556;SDS011;6344;49.932;8.308;2022-10-23T11:39:13;8.50;;;7.80;;
12556;SDS011;6344;49.932;8.308;2022-10-23T11:41:47;5.30;;;4.90;;
12556;SDS011;6344;49.932;8.308;2022-10-23T11:47:24;5.33;;;4.90;;
12556;SDS011;6344;49.932;8.308;2022-10-23T11:50:13;7.67;;;6.97;;
12556;SDS011;6344;49.932;8.308;2022-10-23T11:52:53;5.27;;;4.77;;
12556;SDS011;6344;49.932;8.308;2022-10-23T11:55:22;6.03;;;5.50;;
12556;SDS011;6344;49.932;8.308;2022-10-23T11:58:06;6.07;;;5.47;;
12556;SDS011;6344;49.932;8.308;2022-10-23T12:00:54;5.87;;;5.37;;
12556;SDS011;6344;49.932;8.308;2022-10-23T12:03:27;6.20;;;5.70;;
12556;SDS011;6344;49.932;8.308;2022-10-23T12:06:04;6.50;;;5.90;;
12556;SDS011;6344;49.932;8.308;2022-10-23T12:08:34;5.80;;;5.40;;
12556;SDS011;6344;49.932;8.308;2022-10-23T12:14:11;5.70;;;5.20;;
12556;SDS011;6344;49.932;8.308;2022-10-23T12:16:51;5.40;;;4.90;;
12556;SDS011;6344;49.932;8.308;2022-10-23T12:19:18;6.00;;;5.60;;
12556;SDS011;6344;49.932;8.308;2022-10-23T12:21:46;6.20;;;5.27;;
12556;SDS011;6344;49.932;8.308;2022-10-23T12:24:33;5.87;;;5.43;;
12556;SDS011;6344;49.932;8.308;2022-10-23T12:27:13;5.97;;;5.47;;
12556;SDS011;6344;49.932;8.308;2022-10-23T12:29:49;5.40;;;5.00;;
12556;SDS011;6344;49.932;8.308;2022-10-23T12:32:41;5.47;;;5.00;;
12556;SDS011;6344;49.932;8.308;2022-10-23T12:35:35;5.30;;;4.80;;
12556;SDS011;6344;49.932;8.308;2022-10-23T12:38:15;4.60;;;4.30;;
12556;SDS011;6344;49.932;8.308;2022-10-23T12:40:49;8.73;;;8.00;;
12556;SDS011;6344;49.932;8.308;2022-10-23T12:43:24;7.97;;;7.37;;
12556;SDS011;6344;49.932;8.308;2022-10-23T12:45:53;6.30;;;5.80;;
12556;SDS011;6344;49.932;8.308;2022-10-23T12:48:22;6.10;;;5.00;;
12556;SDS011;6344;49.932;8.308;2022-10-23T12:50:50;5.07;;;4.67;;
12556;SDS011;6344;49.932;8.308;2022-10-23T12:53:19;5.53;;;5.13;;
12556;SDS011;6344;49.932;8.308;2022-10-23T12:55:50;6.10;;;4.90;;
12556;SDS011;6344;49.932;8.308;2022-10-23T12:58:21;5.13;;;4.70;;
12556;SDS011;6344;49.932;8.308;2022-10-23T13:00:52;7.27;;;4.23;;
12556;SDS011;6344;49.932;8.308;2022-10-23T13:03:20;5.13;;;4.73;;
12556;SDS011;6344;49.932;8.308;2022-10-23T13:05:49;5.80;;;5.30;;
12556;SDS011;6344;49.932;8.308;2022-10-23T13:08:17;7.20;;;4.57;;
12556;SDS011;6344;49.932;8.308;2022-10-23T13:10:45;5.77;;;5.23;;
12556;SDS011;6344;49.932;8.308;2022-10-23T13:13:15;5.50;;;5.10;;
12556;SDS011;6344;49.932;8.308;2022-10-23T13:15:46;4.93;;;4.53;;
12556;SDS011;6344;49.932;8.308;2022-10-23T13:18:13;4.67;;;4.40;;
12556;SDS011;6344;49.932;8.308;2022-10-23T13:20:41;6.03;;;4.70;;
12556;SDS011;6344;49.932;8.308;2022-10-23T13:23:10;4.87;;;4.47;;
12556;SDS011;6344;49.932;8.308;2022-10-23T13:25:50;5.10;;;4.70;;
12556;SDS011;6344;49.932;8.308;2022-10-23T13:28:23;8.13;;;4.63;;
12556;SDS011;6344;49.932;8.308;2022-10-23T13:30:59;5.57;;;5.10;;
12556;SDS011;6344;49.932;8.308;2022-10-23T13:33:32;11.00;;;9.93;;
12556;SDS011;6344;49.932;8.308;2022-10-23T13:36:01;11.03;;;5.63;;
12556;SDS011;6344;49.932;8.308;2022-10-23T13:38:30;10.80;;;4.83;;
12556;SDS011;6344;49.932;8.308;2022-10-23T13:40:58;7.90;;;6.47;;
12556;SDS011;6344;49.932;8.308;2022-10-23T13:43:28;5.57;;;5.10;;
12556;SDS011;6344;49.932;8.308;2022-10-23T13:45:56;4.47;;;4.07;;
12556;SDS011;6344;49.932;8.308;2022-10-23T13:48:23;4.40;;;4.17;;
12556;SDS011;6344;49.932;8.308;2022-10-23T13:50:50;4.70;;;4.40;;
12556;SDS011;6344;49.932;8.308;2022-10-23T13:53:17;8.93;;;3.90;;
12556;SDS011;6344;49.932;8.308;2022-10-23T13:55:45;4.63;;;3.80;;
12556;SDS011;6344;49.932;8.308;2022-10-23T13:58:15;4.70;;;4.40;;
12556;SDS011;6344;49.932;8.308;2022-10-23T14:00:43;6.07;;;4.17;;
12556;SDS011;6344;49.932;8.308;2022-10-23T14:03:12;4.37;;;4.00;;
12556;SDS011;6344;49.932;8.308;2022-10-23T14:05:39;4.13;;;3.83;;
12556;SDS011;6344;49.932;8.308;2022-10-23T14:08:06;4.87;;;4.57;;
12556;SDS011;6344;49.932;8.308;2022-10-23T14:10:32;12.13;;;11.17;;
12556;SDS011;6344;49.932;8.308;2022-10-23T14:12:59;5.23;;;4.90;;
12556;SDS011;6344;49.932;8.308;2022-10-23T14:15:26;5.17;;;4.73;;
12556;SDS011;6344;49.932;8.308;2022-10-23T14:17:54;5.60;;;5.20;;
12556;SDS011;6344;49.932;8.308;2022-10-23T14:20:21;5.50;;;5.00;;
12556;SDS011;6344;49.932;8.308;2022-10-23T14:22:47;7.93;;;5.73;;
12556;SDS011;6344;49.932;8.308;2022-10-23T14:25:14;5.13;;;4.83;;
12556;SDS011;6344;49.932;8.308;2022-10-23T14:27:41;5.03;;;3.87;;
12556;SDS011;6344;49.932;8.308;2022-10-23T14:30:08;4.63;;;4.23;;
12556;SDS011;6344;49.932;8.308;2022-10-23T14:32:35;5.07;;;4.53;;
12556;SDS011;6344;49.932;8.308;2022-10-23T14:35:04;4.77;;;4.33;;
12556;SDS011;6344;49.932;8.308;2022-10-23T14:37:32;5.30;;;3.50;;
12556;SDS011;6344;49.932;8.308;2022-10-23T14:39:59;7.37;;;4.20;;
12556;SDS011;6344;49.932;8.308;2022-10-23T14:42:26;3.97;;;3.77;;
12556;SDS011;6344;49.932;8.308;2022-10-23T14:44:58;4.77;;;4.37;;
12556;SDS011;6344;49.932;8.308;2022-10-23T14:47:24;5.17;;;4.70;;
12556;SDS011;6344;49.932;8.308;2022-10-23T14:49:51;4.27;;;3.80;;
12556;SDS011;6344;49.932;8.308;2022-10-23T14:52:19;7.73;;;4.33;;
12556;SDS011;6344;49.932;8.308;2022-10-23T14:54:46;7.27;;;4.63;;
12556;SDS011;6344;49.932;8.308;2022-10-23T14:57:13;6.23;;;4.93;;
12556;SDS011;6344;49.932;8.308;2022-10-23T14:59:41;6.10;;;3.93;;
12556;SDS011;6344;49.932;8.308;2022-10-23T15:02:09;4.93;;;4.10;;
12556;SDS011;6344;49.932;8.308;2022-10-23T15:04:35;4.30;;;3.93;;
12556;SDS011;6344;49.932;8.308;2022-10-23T15:07:02;5.10;;;3.80;;
12556;SDS011;6344;49.932;8.308;2022-10-23T15:09:30;5.13;;;4.70;;
12556;SDS011;6344;49.932;8.308;2022-10-23T15:11:59;5.60;;;5.00;;